Time;durP1;ratioP1;P1;durP2;ratioP2;P2;SDS_P1;SDS_P2;PMS_P1;PMS_P2;Temp;Humidity;BMP_temperature;BMP_pressure;BME280_temperature;BME280_humidity;BME280_pressure;Samples;Min_cycle;Max_cycle;Signal;HPM_P1;HPM_P2
2021/10/04 00:02:14;;;;;;;2.10;1.00;;;;;;;16.94;63.22;96575.25;5092721;28;20422;-66
2021/10/04 00:04:39;;;;;;;1.20;0.90;;;;;;;17.06;62.58;96571.97;5092856;28;20186;-66
2021/10/04 00:07:05;;;;;;;1.43;1.10;;;;;;;17.06;62.78;96569.31;5091969;28;20206;-66
2021/10/04 00:09:31;;;;;;;1.23;1.13;;;;;;;16.92;62.99;96581.78;5092337;28;20231;-65
2021/10/04 00:11:57;;;;;;;1.13;1.03;;;;;;;16.77;63.41;96576.69;5092267;28;20223;-66
2021/10/04 00:14:22;;;;;;;1.20;1.10;;;;;;;16.67;63.73;96575.28;5092784;28;20181;-66
2021/10/04 00:16:49;;;;;;;1.37;1.10;;;;;;;16.95;63.28;96576.09;5092419;28;20197;-65
2021/10/04 00:19:16;;;;;;;1.47;1.37;;;;;;;16.94;63.21;96577.09;5083602;28;20205;-66
2021/10/04 00:21:41;;;;;;;3.30;1.27;;;;;;;16.97;63.30;96566.91;5091889;28;20431;-67
2021/10/04 00:24:07;;;;;;;2.40;1.30;;;;;;;16.99;63.40;96574.63;5089891;28;20424;-66
2021/10/04 00:26:32;;;;;;;1.43;1.20;;;;;;;16.95;63.39;96565.50;5086530;28;20201;-67
2021/10/04 00:28:58;;;;;;;1.87;1.30;;;;;;;16.83;63.60;96573.22;5091685;28;20188;-65
2021/10/04 00:31:24;;;;;;;1.10;0.93;;;;;;;16.85;63.77;96576.50;5091444;28;20588;-67
2021/10/04 00:33:49;;;;;;;1.30;1.13;;;;;;;16.63;64.79;96579.41;5091961;28;20182;-66
2021/10/04 00:36:15;;;;;;;1.40;1.30;;;;;;;16.79;64.14;96572.00;5091950;28;20596;-65
2021/10/04 00:38:41;;;;;;;1.03;0.93;;;;;;;16.81;63.77;96570.81;5092216;28;20203;-65
2021/10/04 00:41:06;;;;;;;2.30;1.20;;;;;;;16.85;63.56;96572.00;5091991;28;20209;-65
2021/10/04 00:43:32;;;;;;;1.30;1.20;;;;;;;17.10;63.28;96581.94;5091715;28;20690;-65
2021/10/04 00:45:58;;;;;;;2.50;1.30;;;;;;;16.90;63.89;96581.94;5092212;28;20193;-66
2021/10/04 00:48:24;;;;;;;1.47;1.00;;;;;;;16.85;64.22;96579.13;5090522;28;20209;-64
2021/10/04 00:50:50;;;;;;;1.97;1.30;;;;;;;16.87;63.87;96582.41;5091459;28;20412;-64
2021/10/04 00:53:15;;;;;;;1.10;1.00;;;;;;;16.74;64.16;96589.34;5091155;28;20177;-66
2021/10/04 00:55:41;;;;;;;1.30;1.20;;;;;;;16.74;64.67;96586.69;5084840;28;20248;-65
2021/10/04 00:58:07;;;;;;;1.27;1.00;;;;;;;16.43;65.32;96596.09;5091649;28;20217;-66
2021/10/04 01:00:33;;;;;;;1.63;1.00;;;;;;;16.56;64.74;96589.97;5092075;28;20636;-65
2021/10/04 01:02:58;;;;;;;1.67;1.00;;;;;;;16.41;64.44;96592.81;5091846;28;20178;-66
2021/10/04 01:05:24;;;;;;;1.77;0.90;;;;;;;16.34;64.45;96577.97;5091193;28;20178;-66
2021/10/04 01:07:50;;;;;;;2.70;1.30;;;;;;;16.18;64.24;96581.84;5091269;28;20561;-62
2021/10/04 01:10:16;;;;;;;1.60;1.00;;;;;;;16.10;64.24;96580.22;5091927;28;20543;-66
2021/10/04 01:12:45;;;;;;;1.57;1.20;;;;;;;16.12;64.28;96580.81;5090697;28;20426;-67
2021/10/04 01:15:11;;;;;;;1.30;0.90;;;;;;;16.00;64.29;96585.91;5091945;28;20428;-66
2021/10/04 01:17:37;;;;;;;1.37;1.23;;;;;;;15.84;64.62;96580.97;5091956;28;20436;-66
2021/10/04 01:20:16;;;;;;;1.10;0.80;;;;;;;15.82;63.94;96592.56;5091175;28;20902;-65
2021/10/04 01:22:42;;;;;;;2.93;1.20;;;;;;;15.62;63.88;96594.34;5093400;28;20411;-64
2021/10/04 01:25:09;;;;;;;1.33;1.23;;;;;;;16.10;62.56;96581.03;5085164;28;20421;-65
2021/10/04 01:27:35;;;;;;;3.00;1.17;;;;;;;16.26;61.65;96584.28;5091179;28;20237;-64
2021/10/04 01:30:01;;;;;;;1.03;0.90;;;;;;;16.17;61.41;96586.34;5091425;28;20454;-66
2021/10/04 01:32:26;;;;;;;1.10;0.77;;;;;;;15.89;62.07;96586.50;5091482;28;20599;-66
2021/10/04 01:34:56;;;;;;;1.20;0.97;;;;;;;15.99;61.76;96591.38;5089695;28;20427;-67
2021/10/04 01:37:23;;;;;;;1.10;0.90;;;;;;;16.15;61.34;96587.53;5090790;28;20213;-65
2021/10/04 01:39:49;;;;;;;2.03;0.90;;;;;;;16.24;61.15;96599.56;5097465;28;20459;-66
2021/10/04 01:42:15;;;;;;;1.37;1.10;;;;;;;16.31;60.77;96604.84;5105134;28;20428;-66
2021/10/04 01:44:40;;;;;;;1.00;0.80;;;;;;;16.25;60.53;96603.81;5101598;28;20438;-67
2021/10/04 01:47:06;;;;;;;2.00;1.00;;;;;;;16.32;60.48;96603.81;5094873;28;20265;-67
2021/10/04 01:49:32;;;;;;;1.10;0.80;;;;;;;16.38;60.09;96606.44;5095090;28;20179;-66
2021/10/04 01:51:58;;;;;;;1.43;1.00;;;;;;;16.26;60.69;96605.44;5096448;28;20547;-66
2021/10/04 01:54:23;;;;;;;1.10;0.70;;;;;;;16.23;60.37;96601.38;5096611;28;20178;-66
2021/10/04 01:56:49;;;;;;;1.67;1.10;;;;;;;16.22;60.83;96617.44;5108297;28;20261;-67
2021/10/04 01:59:14;;;;;;;1.00;0.80;;;;;;;16.27;60.20;96613.19;5107103;28;20197;-66
2021/10/04 02:01:40;;;;;;;1.10;0.90;;;;;;;16.02;61.42;96626.16;5108678;28;20209;-65
2021/10/04 02:04:05;;;;;;;1.30;0.73;;;;;;;16.05;61.40;96628.41;5092640;28;20190;-65
2021/10/04 02:06:31;;;;;;;1.50;1.07;;;;;;;16.10;61.58;96627.78;5093229;28;20205;-65
2021/10/04 02:08:57;;;;;;;2.27;1.77;;;;;;;15.90;62.89;96633.03;5093898;28;20207;-65
2021/10/04 02:11:22;;;;;;;1.67;1.10;;;;;;;15.49;63.99;96627.63;5094172;28;20255;-65
2021/10/04 02:13:48;;;;;;;2.90;1.23;;;;;;;15.51;64.93;96649.34;5092857;28;20267;-65
2021/10/04 02:16:15;;;;;;;2.80;1.10;;;;;;;15.63;64.54;96638.22;5094116;28;20251;-64
2021/10/04 02:18:42;;;;;;;1.23;0.90;;;;;;;15.84;64.53;96631.19;5093724;28;20216;-65
2021/10/04 02:21:07;;;;;;;1.17;1.07;;;;;;;15.33;66.76;96638.53;5094009;28;20929;-65
2021/10/04 02:23:33;;;;;;;1.10;0.90;;;;;;;14.96;67.87;96637.94;5093674;28;20419;-64
2021/10/04 02:25:59;;;;;;;3.63;1.00;;;;;;;14.86;68.46;96643.53;5086352;28;20177;-66
2021/10/04 02:28:25;;;;;;;0.90;0.73;;;;;;;14.65;69.28;96633.81;5093061;28;20705;-66
2021/10/04 02:30:52;;;;;;;1.30;0.80;;;;;;;14.77;69.64;96632.31;5093335;28;20511;-65
2021/10/04 02:33:18;;;;;;;3.63;0.80;;;;;;;14.51;70.46;96631.09;5093322;28;20415;-66
2021/10/04 02:35:44;;;;;;;3.93;0.97;;;;;;;14.74;69.93;96624.81;5093395;28;21037;-65
2021/10/04 02:38:10;;;;;;;1.00;0.80;;;;;;;14.92;69.70;96610.28;5093184;28;20435;-64
2021/10/04 02:40:35;;;;;;;1.00;0.90;;;;;;;14.87;70.36;96613.50;5092463;28;20558;-65
2021/10/04 02:43:01;;;;;;;1.30;0.97;;;;;;;14.82;70.55;96627.28;5093442;28;20178;-66
2021/10/04 02:45:27;;;;;;;2.13;1.03;;;;;;;14.56;71.65;96628.72;5093421;28;20208;-65
2021/10/04 02:47:56;;;;;;;1.00;0.83;;;;;;;14.70;71.38;96624.38;5092760;28;20548;-66
2021/10/04 02:50:23;;;;;;;3.53;1.00;;;;;;;14.94;71.27;96632.03;5093154;28;20412;-65
2021/10/04 02:52:49;;;;;;;1.13;1.00;;;;;;;14.99;70.86;96625.16;5092786;28;20419;-66
2021/10/04 02:55:14;;;;;;;1.10;0.80;;;;;;;14.61;71.78;96629.97;5086235;28;20419;-66
2021/10/04 02:57:40;;;;;;;1.00;0.87;;;;;;;14.43;72.44;96628.59;5092870;28;20193;-66
2021/10/04 03:00:08;;;;;;;1.20;0.90;;;;;;;14.68;71.64;96615.81;5092977;28;20680;-66
2021/10/04 03:02:34;;;;;;;1.10;1.00;;;;;;;14.44;72.15;96594.13;5093288;28;20178;-66
2021/10/04 03:05:00;;;;;;;1.20;1.00;;;;;;;14.67;71.41;96606.31;5085994;28;20438;-65
2021/10/04 03:07:25;;;;;;;1.37;1.00;;;;;;;14.71;71.27;96625.19;5092737;28;20371;-63
2021/10/04 03:09:52;;;;;;;1.10;0.97;;;;;;;14.69;71.77;96633.28;5091377;28;20524;-66
2021/10/04 03:12:18;;;;;;;2.13;1.53;;;;;;;14.72;71.81;96632.09;5088698;28;20280;-66
2021/10/04 03:14:44;;;;;;;15.80;9.03;;;;;;;14.66;71.75;96632.81;5070522;28;20435;-64
2021/10/04 03:17:10;;;;;;;9.00;5.47;;;;;;;14.82;71.40;96643.13;5074120;28;20443;-66
2021/10/04 03:19:36;;;;;;;7.13;3.97;;;;;;;14.78;71.58;96631.31;5092514;28;20458;-65
2021/10/04 03:22:02;;;;;;;2.47;1.80;;;;;;;14.72;71.57;96637.38;5092482;28;20203;-66
2021/10/04 03:24:27;;;;;;;3.20;1.40;;;;;;;14.52;72.70;96631.91;5092395;28;20174;-66
2021/10/04 03:26:53;;;;;;;1.10;0.87;;;;;;;14.42;72.28;96632.25;5092048;28;20444;-64
2021/10/04 03:29:19;;;;;;;1.97;1.10;;;;;;;14.58;71.96;96636.41;5092631;28;20177;-65
2021/10/04 03:31:44;;;;;;;1.20;0.90;;;;;;;14.59;71.37;96643.31;5070898;28;20175;-65
2021/10/04 03:34:11;;;;;;;1.80;0.80;;;;;;;14.84;70.55;96640.28;5092381;28;20201;-65
2021/10/04 03:36:36;;;;;;;1.00;0.80;;;;;;;14.80;71.07;96645.13;5092422;28;20312;-65
2021/10/04 03:39:03;;;;;;;2.07;0.80;;;;;;;14.91;70.53;96646.44;5091876;28;20817;-64
2021/10/04 03:41:29;;;;;;;4.00;1.07;;;;;;;15.02;70.54;96647.69;5092807;28;20178;-66
2021/10/04 03:43:54;;;;;;;1.10;0.80;;;;;;;15.18;69.93;96646.59;5087432;28;20988;-64
2021/10/04 03:46:20;;;;;;;1.40;0.90;;;;;;;15.24;69.47;96656.34;5092716;28;20261;-66
2021/10/04 03:48:46;;;;;;;1.80;1.40;;;;;;;15.36;68.94;96653.97;5092379;28;20621;-65
2021/10/04 03:51:11;;;;;;;1.77;0.80;;;;;;;15.40;68.71;96655.19;5092679;28;20189;-66
2021/10/04 03:53:37;;;;;;;2.00;0.90;;;;;;;15.45;68.74;96660.72;5093027;28;20269;-66
2021/10/04 03:56:03;;;;;;;3.27;0.90;;;;;;;15.51;68.55;96661.75;5092494;28;20201;-66
2021/10/04 03:58:28;;;;;;;3.10;1.30;;;;;;;15.51;68.45;96659.91;5048735;28;20201;-67
2021/10/04 04:00:54;;;;;;;1.00;0.70;;;;;;;15.58;68.42;96661.78;5088344;28;20209;-67
2021/10/04 04:03:20;;;;;;;1.80;1.00;;;;;;;15.57;68.41;96665.44;5092450;28;20532;-66
2021/10/04 04:05:45;;;;;;;1.70;1.20;;;;;;;15.50;68.87;96670.69;5074676;28;20188;-64
2021/10/04 04:08:11;;;;;;;2.40;1.07;;;;;;;15.55;68.97;96667.44;5090828;28;20221;-66
2021/10/04 04:10:37;;;;;;;1.40;1.00;;;;;;;15.26;69.55;96664.88;5091975;28;20192;-66
2021/10/04 04:13:02;;;;;;;1.20;1.00;;;;;;;15.40;69.50;96667.59;5092131;28;20178;-66
2021/10/04 04:15:28;;;;;;;1.50;0.90;;;;;;;15.51;69.10;96662.56;5088255;28;20217;-66
2021/10/04 04:17:54;;;;;;;2.20;1.03;;;;;;;15.47;68.87;96663.97;5090914;28;20198;-63
2021/10/04 04:20:19;;;;;;;1.10;0.97;;;;;;;15.52;68.79;96679.22;5091424;28;20669;-65
2021/10/04 04:22:46;;;;;;;1.87;1.30;;;;;;;15.38;69.36;96693.38;5091515;28;20178;-66
2021/10/04 04:25:13;;;;;;;3.20;1.13;;;;;;;15.08;70.90;96694.44;5090959;28;20174;-65
2021/10/04 04:27:38;;;;;;;1.10;1.00;;;;;;;15.07;70.52;96687.50;5090959;28;20488;-64
2021/10/04 04:30:05;;;;;;;1.37;1.10;;;;;;;15.30;69.68;96668.78;5089585;28;20424;-66
2021/10/04 04:32:31;;;;;;;4.23;1.10;;;;;;;15.39;69.61;96679.97;5091066;28;20216;-66
2021/10/04 04:34:57;;;;;;;1.10;1.00;;;;;;;15.43;69.55;96675.94;5091405;28;20420;-66
2021/10/04 04:37:22;;;;;;;1.27;1.03;;;;;;;15.52;68.70;96674.75;5090566;28;20451;-66
2021/10/04 04:39:48;;;;;;;1.53;1.10;;;;;;;15.58;68.64;96677.63;5090538;28;20201;-66
2021/10/04 04:42:14;;;;;;;1.33;0.90;;;;;;;15.54;68.92;96681.66;5081762;28;20181;-64
2021/10/04 04:44:39;;;;;;;1.60;1.10;;;;;;;15.56;68.59;96682.28;5086842;28;20234;-65
2021/10/04 04:47:05;;;;;;;2.60;0.97;;;;;;;15.60;68.59;96680.88;5090616;28;20284;-65
2021/10/04 04:49:31;;;;;;;4.30;1.07;;;;;;;15.59;68.52;96687.97;5090878;28;20185;-65
2021/10/04 04:51:58;;;;;;;1.50;1.07;;;;;;;15.58;68.28;96682.91;5090911;28;20184;-66
2021/10/04 04:54:24;;;;;;;1.23;0.97;;;;;;;15.57;68.26;96699.75;5090947;28;20204;-66
2021/10/04 04:56:50;;;;;;;1.90;1.00;;;;;;;15.53;68.37;96701.97;5090589;28;20458;-67
2021/10/04 04:59:16;;;;;;;2.10;1.10;;;;;;;15.59;68.43;96705.66;5090737;28;20486;-66
2021/10/04 05:01:44;;;;;;;1.27;1.17;;;;;;;15.63;68.31;96706.88;5090731;28;20420;-65
2021/10/04 05:04:11;;;;;;;2.53;1.40;;;;;;;15.57;68.54;96715.59;5090454;28;20174;-66
2021/10/04 05:06:36;;;;;;;1.67;1.10;;;;;;;15.28;69.42;96720.13;5090500;28;20841;-64
2021/10/04 05:09:02;;;;;;;2.53;1.20;;;;;;;15.35;69.32;96719.16;5090468;28;20404;-65
2021/10/04 05:11:28;;;;;;;2.63;1.20;;;;;;;15.25;69.08;96721.31;5091033;28;20263;-65
2021/10/04 05:13:53;;;;;;;1.80;1.40;;;;;;;15.25;69.35;96712.59;5082272;28;20568;-66
2021/10/04 05:16:19;;;;;;;3.20;1.10;;;;;;;15.47;68.84;96713.31;5093539;28;20206;-63
2021/10/04 05:18:44;;;;;;;1.30;1.20;;;;;;;15.47;69.15;96711.50;5094961;28;20814;-65
2021/10/04 05:21:10;;;;;;;1.60;1.13;;;;;;;15.46;69.46;96723.06;5094411;28;20264;-65
2021/10/04 05:23:35;;;;;;;1.87;1.40;;;;;;;15.42;69.53;96732.38;5089221;28;20185;-67
2021/10/04 05:26:01;;;;;;;3.20;1.20;;;;;;;15.30;69.55;96755.06;5094719;28;20582;-67
2021/10/04 05:28:27;;;;;;;1.80;1.27;;;;;;;15.19;70.29;96737.91;5094607;28;20186;-65
2021/10/04 05:30:52;;;;;;;2.73;1.40;;;;;;;15.24;69.82;96742.66;5093386;28;20426;-65
2021/10/04 05:33:18;;;;;;;1.83;1.07;;;;;;;15.29;69.58;96753.44;5094929;28;20718;-66
2021/10/04 05:35:43;;;;;;;2.13;1.40;;;;;;;15.33;69.36;96760.75;5094743;28;20190;-66
2021/10/04 05:38:09;;;;;;;3.40;1.10;;;;;;;15.22;69.72;96757.84;5094742;28;20202;-67
2021/10/04 05:40:35;;;;;;;1.77;1.60;;;;;;;15.28;69.76;96754.44;5095001;28;20174;-66
2021/10/04 05:43:00;;;;;;;1.07;0.90;;;;;;;15.21;69.12;96767.59;5095504;28;20297;-66
2021/10/04 05:45:26;;;;;;;2.13;1.43;;;;;;;15.34;69.15;96766.88;5095031;28;20235;-66
2021/10/04 05:47:51;;;;;;;1.80;1.30;;;;;;;15.43;68.83;96773.63;5094318;28;20194;-65
2021/10/04 05:50:17;;;;;;;3.03;1.80;;;;;;;15.41;69.00;96765.06;5094769;28;20553;-66
2021/10/04 05:52:43;;;;;;;4.23;1.40;;;;;;;15.40;69.24;96760.81;5090549;28;20177;-65
2021/10/04 05:55:10;;;;;;;2.00;1.40;;;;;;;15.14;70.04;96772.00;5093170;28;20794;-66
2021/10/04 05:57:36;;;;;;;2.13;1.50;;;;;;;15.26;69.75;96769.66;5094765;28;20660;-66
2021/10/04 06:00:04;;;;;;;1.93;1.33;;;;;;;15.20;69.81;96760.66;5094564;28;20447;-65
2021/10/04 06:02:30;;;;;;;2.30;1.87;;;;;;;15.20;70.07;96761.50;5094558;28;20628;-66
2021/10/04 06:04:55;;;;;;;3.10;1.30;;;;;;;15.25;70.11;96757.47;5092563;28;20416;-66
2021/10/04 06:07:21;;;;;;;1.90;1.60;;;;;;;15.39;69.69;96764.44;5094125;28;20280;-66
2021/10/04 06:09:46;;;;;;;1.60;1.50;;;;;;;15.45;69.57;96763.69;5094251;28;20660;-67
2021/10/04 06:12:12;;;;;;;3.43;2.17;;;;;;;15.46;69.73;96765.31;5093983;28;20173;-66
2021/10/04 06:14:38;;;;;;;3.37;2.60;;;;;;;15.54;69.44;96758.25;5094775;28;20182;-66
2021/10/04 06:17:03;;;;;;;2.10;1.90;;;;;;;15.52;69.71;96767.19;5100741;28;20202;-66
2021/10/04 06:19:29;;;;;;;3.10;2.30;;;;;;;15.59;69.68;96771.69;5093710;28;20200;-66
2021/10/04 06:21:54;;;;;;;5.10;2.20;;;;;;;15.65;69.54;96757.69;5089244;28;20181;-66
2021/10/04 06:24:20;;;;;;;4.23;2.50;;;;;;;15.73;69.31;96772.56;5094376;28;20181;-65
2021/10/04 06:26:46;;;;;;;4.00;2.47;;;;;;;15.73;69.34;96775.22;5091927;28;20204;-64
2021/10/04 06:29:12;;;;;;;2.60;2.37;;;;;;;15.69;69.39;96774.78;5093560;28;20174;-66
2021/10/04 06:31:38;;;;;;;3.57;2.73;;;;;;;15.69;69.52;96776.63;5096131;28;20177;-65
2021/10/04 06:34:04;;;;;;;8.20;2.93;;;;;;;15.57;69.69;96781.63;5104285;28;20419;-66
2021/10/04 06:36:29;;;;;;;2.60;2.30;;;;;;;15.52;70.04;96767.19;5104192;28;20209;-66
2021/10/04 06:38:55;;;;;;;4.80;3.33;;;;;;;15.63;70.47;96775.56;5105753;28;20229;-65
2021/10/04 06:41:21;;;;;;;3.17;2.70;;;;;;;15.60;70.63;96784.69;5106977;28;20182;-66
2021/10/04 06:43:46;;;;;;;6.67;3.73;;;;;;;15.77;70.22;96795.75;5107574;28;20177;-64
2021/10/04 06:46:12;;;;;;;7.10;3.90;;;;;;;15.75;70.53;96810.97;5099670;28;20253;-66
2021/10/04 06:48:38;;;;;;;4.07;3.03;;;;;;;15.71;70.05;96814.22;5096262;28;20174;-66
2021/10/04 06:51:05;;;;;;;5.30;3.40;;;;;;;15.54;70.58;96813.69;5096094;28;20664;-66
2021/10/04 06:53:32;;;;;;;3.70;3.20;;;;;;;15.51;70.65;96826.28;5090599;28;20475;-66
2021/10/04 06:55:57;;;;;;;4.20;3.50;;;;;;;15.57;70.75;96826.53;5101226;28;20978;-65
2021/10/04 06:58:23;;;;;;;4.87;3.73;;;;;;;15.34;70.97;96825.75;5104192;28;20452;-66
2021/10/04 07:00:49;;;;;;;4.70;3.60;;;;;;;15.44;70.92;96827.25;5105357;28;20178;-67
2021/10/04 07:03:14;;;;;;;7.00;5.07;;;;;;;15.26;71.40;96838.28;5101421;28;20177;-67
2021/10/04 07:05:42;;;;;;;6.27;4.13;;;;;;;14.98;72.75;96844.34;5098395;28;20260;-65
2021/10/04 07:08:08;;;;;;;8.77;5.20;;;;;;;14.88;72.95;96848.09;5095145;28;20202;-65
2021/10/04 07:10:34;;;;;;;6.20;4.30;;;;;;;14.77;73.28;96853.88;5095017;28;20779;-66
2021/10/04 07:12:59;;;;;;;5.23;3.70;;;;;;;14.63;73.96;96868.72;5094513;28;20200;-67
2021/10/04 07:15:25;;;;;;;5.90;3.90;;;;;;;14.74;74.01;96864.81;5094274;28;20801;-67
2021/10/04 07:17:51;;;;;;;5.67;4.07;;;;;;;14.85;73.48;96860.88;5092114;28;20695;-66
2021/10/04 07:20:16;;;;;;;8.27;4.07;;;;;;;15.06;72.74;96854.78;5095099;28;20515;-65
2021/10/04 07:22:43;;;;;;;3.73;3.40;;;;;;;14.96;73.11;96870.09;5091230;28;20181;-65
2021/10/04 07:25:09;;;;;;;5.47;4.13;;;;;;;14.92;73.08;96866.19;5095118;28;20274;-67
2021/10/04 07:27:35;;;;;;;13.87;9.47;;;;;;;15.05;72.77;96874.25;5095043;28;20435;-66
2021/10/04 07:30:01;;;;;;;5.67;4.20;;;;;;;14.87;73.44;96867.56;5094482;28;20424;-67
2021/10/04 07:32:27;;;;;;;8.93;3.80;;;;;;;14.93;73.52;96875.75;5095467;28;20707;-67
2021/10/04 07:34:52;;;;;;;5.60;4.10;;;;;;;15.05;72.90;96876.88;5095319;28;20412;-66
2021/10/04 07:37:18;;;;;;;4.83;4.17;;;;;;;14.94;73.12;96867.63;5094107;28;20246;-66
2021/10/04 07:39:43;;;;;;;5.83;3.73;;;;;;;15.01;73.39;96876.47;5093143;28;20212;-64
2021/10/04 07:42:09;;;;;;;6.57;4.17;;;;;;;15.09;73.00;96875.50;5097850;28;20192;-65
2021/10/04 07:44:35;;;;;;;3.00;2.40;;;;;;;14.94;72.74;96894.03;5093731;28;20174;-65
2021/10/04 07:47:02;;;;;;;4.70;3.30;;;;;;;14.70;73.68;96898.66;5092459;28;20204;-66
2021/10/04 07:49:29;;;;;;;5.47;3.70;;;;;;;14.93;73.05;96908.25;5092162;28;20192;-64
2021/10/04 07:51:56;;;;;;;4.10;3.17;;;;;;;14.70;73.09;96903.13;5089949;28;20421;-66
2021/10/04 07:54:22;;;;;;;4.57;3.70;;;;;;;14.52;73.68;96912.22;5092181;28;20499;-64
2021/10/04 07:56:47;;;;;;;4.53;2.80;;;;;;;14.43;74.14;96919.41;5091201;28;20877;-66
2021/10/04 07:59:13;;;;;;;3.20;2.90;;;;;;;14.65;73.84;96926.56;5092187;28;20200;-66
2021/10/04 08:01:38;;;;;;;3.90;3.00;;;;;;;14.56;74.92;96921.41;5094352;28;20230;-66
2021/10/04 08:04:04;;;;;;;4.13;3.67;;;;;;;14.83;74.17;96924.38;5092799;28;20196;-65
2021/10/04 08:06:30;;;;;;;3.00;2.70;;;;;;;14.72;73.50;96923.03;5093200;28;20584;-64
2021/10/04 08:08:56;;;;;;;3.53;2.80;;;;;;;15.16;72.65;96915.97;5091901;28;20179;-66
2021/10/04 08:11:22;;;;;;;5.97;4.67;;;;;;;15.28;72.39;96915.47;5092556;28;20202;-65
2021/10/04 08:13:50;;;;;;;5.00;3.70;;;;;;;15.31;72.29;96915.09;5094437;28;20174;-67
2021/10/04 08:16:17;;;;;;;3.23;2.93;;;;;;;15.40;71.63;96919.22;5093847;28;20801;-67
2021/10/04 08:18:43;;;;;;;4.80;2.77;;;;;;;14.86;73.04;96921.38;5094789;28;20455;-67
2021/10/04 08:21:09;;;;;;;3.10;2.80;;;;;;;14.81;73.11;96926.38;5092059;28;20438;-65
2021/10/04 08:23:37;;;;;;;3.30;2.40;;;;;;;14.70;73.88;96927.66;5088459;28;20519;-67
2021/10/04 08:26:04;;;;;;;1.70;1.60;;;;;;;15.02;72.47;96936.16;5074289;28;20189;-67
2021/10/04 08:28:30;;;;;;;1.90;1.67;;;;;;;14.94;72.58;96946.00;5095581;28;20415;-65
2021/10/04 08:30:55;;;;;;;3.10;2.70;;;;;;;14.98;73.04;96945.44;5099664;28;20416;-65
2021/10/04 08:33:21;;;;;;;3.30;2.00;;;;;;;15.00;72.35;96955.78;5098871;28;20881;-67
2021/10/04 08:35:47;;;;;;;1.83;1.70;;;;;;;15.08;72.31;96945.13;5099907;28;20258;-65
2021/10/04 08:38:12;;;;;;;2.17;2.07;;;;;;;15.12;71.65;96941.09;5098544;28;20194;-66
2021/10/04 08:40:38;;;;;;;4.63;2.10;;;;;;;14.67;73.66;96951.78;5101786;28;20261;-67
2021/10/04 08:43:03;;;;;;;2.63;2.43;;;;;;;14.92;72.78;96943.56;5092850;28;20226;-66
2021/10/04 08:45:29;;;;;;;1.93;1.80;;;;;;;14.85;72.86;96961.94;5092205;28;20170;-66
2021/10/04 08:47:58;;;;;;;2.40;2.20;;;;;;;14.94;72.84;96961.81;5091647;28;20610;-66
2021/10/04 08:50:27;;;;;;;2.43;1.97;;;;;;;15.19;72.25;96970.19;5091536;28;20177;-66
2021/10/04 08:52:53;;;;;;;2.60;2.40;;;;;;;14.99;72.67;96970.00;5087360;28;20907;-67
2021/10/04 08:55:21;;;;;;;6.70;2.97;;;;;;;14.96;72.67;96960.63;5090557;28;20416;-65
2021/10/04 08:57:46;;;;;;;4.20;2.90;;;;;;;15.00;72.77;96961.06;5091132;28;20202;-65
2021/10/04 09:00:12;;;;;;;2.70;2.10;;;;;;;14.96;72.76;96959.81;5091093;28;20752;-64
2021/10/04 09:02:37;;;;;;;3.13;2.83;;;;;;;14.84;72.90;96962.94;5091796;28;20193;-64
2021/10/04 09:05:09;;;;;;;2.33;2.13;;;;;;;15.02;72.75;96961.69;5091194;28;20613;-67
2021/10/04 09:07:39;;;;;;;3.73;3.30;;;;;;;15.17;72.14;96959.84;5090982;28;20189;-68
2021/10/04 09:10:06;;;;;;;2.27;2.07;;;;;;;14.71;73.77;96957.50;5091170;28;20496;-68
2021/10/04 09:12:43;;;;;;;2.47;1.10;;;;;;;14.72;73.04;96964.44;5089656;28;20428;-66
2021/10/04 09:15:30;;;;;;;3.00;1.30;;;;;;;14.78;73.39;96960.22;5090928;28;20523;-66
2021/10/04 09:17:58;;;;;;;3.23;1.20;;;;;;;14.76;72.98;96960.41;5090764;28;20978;-66
2021/10/04 09:20:24;;;;;;;1.30;1.10;;;;;;;14.70;73.09;96964.59;5090552;28;20524;-66
2021/10/04 09:22:50;;;;;;;1.80;1.40;;;;;;;14.92;73.21;96966.47;5086858;28;20423;-65
2021/10/04 09:25:16;;;;;;;1.43;1.33;;;;;;;14.99;72.61;96967.38;5091736;28;20416;-68
2021/10/04 09:27:45;;;;;;;0.90;0.70;;;;;;;14.92;72.54;96967.28;5091122;28;20247;-67
2021/10/04 09:30:23;;;;;;;6.10;1.20;;;;;;;15.36;71.39;96960.22;5091497;28;20412;-66
2021/10/04 09:32:51;;;;;;;1.90;1.10;;;;;;;15.48;70.42;96964.00;5092262;28;20941;-67
2021/10/04 09:35:29;;;;;;;1.10;0.90;;;;;;;15.24;70.28;96964.38;5091159;28;20553;-65
2021/10/04 09:37:58;;;;;;;1.77;1.50;;;;;;;15.30;70.79;96977.66;5092949;28;20443;-65
2021/10/04 09:40:34;;;;;;;3.43;1.63;;;;;;;15.24;70.70;96980.22;5093156;28;20466;-66
2021/10/04 09:43:03;;;;;;;5.17;0.93;;;;;;;15.48;69.31;96982.50;5092691;28;20427;-64
2021/10/04 09:45:30;;;;;;;1.60;1.00;;;;;;;15.55;69.17;96974.63;5091662;28;20408;-67
2021/10/04 09:47:56;;;;;;;1.10;1.00;;;;;;;15.34;70.12;96983.38;5089034;28;20435;-64
2021/10/04 09:50:28;;;;;;;10.03;1.00;;;;;;;15.51;69.37;96963.59;5085112;28;20418;-66
2021/10/04 09:52:59;;;;;;;1.30;0.87;;;;;;;15.67;68.40;96967.00;5087261;28;20201;-65
2021/10/04 09:55:30;;;;;;;1.50;0.90;;;;;;;15.49;67.53;96965.63;5091333;28;20508;-65
2021/10/04 09:58:00;;;;;;;1.43;0.70;;;;;;;15.40;66.69;96972.03;5090512;28;20839;-65
2021/10/04 10:00:29;;;;;;;1.43;0.50;;;;;;;15.71;65.33;96973.53;5090300;28;20512;-64
2021/10/04 10:02:55;;;;;;;9.10;0.60;;;;;;;15.96;64.22;96968.66;5092626;28;20442;-65
2021/10/04 10:05:26;;;;;;;1.17;0.57;;;;;;;16.15;63.77;96973.47;5094500;28;20804;-65
2021/10/04 10:07:51;;;;;;;2.30;0.60;;;;;;;15.55;65.66;96966.72;5092355;28;21132;-65
2021/10/04 10:10:18;;;;;;;0.90;0.60;;;;;;;15.72;65.99;96977.81;5094307;28;20412;-65
2021/10/04 10:12:43;;;;;;;1.10;0.70;;;;;;;15.97;65.18;96974.78;5094077;28;20735;-66
2021/10/04 10:15:35;;;;;;;1.30;0.57;;;;;;;16.02;65.07;96975.00;5092171;28;20424;-67
2021/10/04 10:18:12;;;;;;;1.53;1.17;;;;;;;16.00;65.90;96966.47;5093281;28;20269;-67
2021/10/04 10:20:38;;;;;;;1.73;0.60;;;;;;;16.28;65.00;96965.63;5092419;28;20965;-65
2021/10/04 10:23:04;;;;;;;1.50;0.77;;;;;;;16.45;65.27;96970.59;5089821;28;21085;-64
2021/10/04 10:25:34;;;;;;;6.13;0.83;;;;;;;16.35;64.14;96961.19;5094210;28;20423;-65
2021/10/04 10:28:01;;;;;;;1.00;0.60;;;;;;;16.10;64.70;96952.91;5094075;28;20223;-65
2021/10/04 10:30:27;;;;;;;0.90;0.60;;;;;;;16.55;63.33;96948.09;5092887;28;20420;-65
2021/10/04 10:32:54;;;;;;;1.00;0.60;;;;;;;16.95;62.30;96946.63;5093916;28;20419;-65
2021/10/04 10:35:48;;;;;;;0.90;0.60;;;;;;;17.24;61.96;96948.13;5059283;28;20560;-65
2021/10/04 10:38:16;;;;;;;2.60;0.60;;;;;;;17.28;60.95;96949.34;5085246;28;20436;-66
2021/10/04 10:40:41;;;;;;;1.67;0.90;;;;;;;17.09;62.69;96947.47;5092669;28;20416;-67
2021/10/04 10:43:09;;;;;;;1.10;0.73;;;;;;;17.37;62.35;96949.16;5093977;28;20442;-66
2021/10/04 10:45:42;;;;;;;1.37;0.87;;;;;;;17.01;64.51;96949.25;5093817;28;20740;-65
2021/10/04 10:48:08;;;;;;;3.43;1.27;;;;;;;17.09;63.27;96947.47;5093062;28;20863;-65
2021/10/04 10:50:45;;;;;;;1.30;1.20;;;;;;;17.01;63.66;96946.63;5091955;28;20442;-65
2021/10/04 10:53:16;;;;;;;2.00;1.20;;;;;;;17.14;64.60;96940.56;5089195;28;20426;-67
2021/10/04 10:55:47;;;;;;;1.90;1.23;;;;;;;16.98;64.69;96948.84;5094682;28;20423;-66
2021/10/04 10:58:17;;;;;;;2.80;1.43;;;;;;;17.03;63.81;96959.69;5091194;28;20478;-65
2021/10/04 11:00:47;;;;;;;2.90;1.10;;;;;;;17.26;63.26;96958.50;5091725;28;20959;-64
2021/10/04 11:03:20;;;;;;;3.33;0.97;;;;;;;16.93;63.94;96945.97;5092821;28;20416;-66
2021/10/04 11:05:57;;;;;;;1.10;0.90;;;;;;;17.00;62.87;96947.66;5093525;28;20430;-67
2021/10/04 11:08:29;;;;;;;2.10;1.27;;;;;;;17.20;63.32;96954.81;5093650;28;20450;-66
2021/10/04 11:10:57;;;;;;;1.47;1.00;;;;;;;17.28;61.85;96956.47;5093106;28;20503;-67
2021/10/04 11:13:32;;;;;;;2.60;2.40;;;;;;;17.20;62.46;96946.88;5092678;28;20408;-65
2021/10/04 11:16:04;;;;;;;4.23;1.30;;;;;;;17.44;61.59;96944.66;5094100;28;20415;-66
2021/10/04 11:18:37;;;;;;;1.10;0.83;;;;;;;17.31;61.63;96951.59;5094111;28;20833;-66
2021/10/04 11:21:06;;;;;;;1.10;0.70;;;;;;;17.18;62.01;96941.78;5092886;28;20416;-65
2021/10/04 11:23:32;;;;;;;1.10;1.00;;;;;;;17.63;61.10;96941.22;5089074;28;20500;-65
2021/10/04 11:25:58;;;;;;;1.43;0.90;;;;;;;17.45;61.24;96943.66;5093085;28;20420;-66
2021/10/04 11:28:29;;;;;;;1.60;0.70;;;;;;;17.46;61.59;96932.03;5092836;28;20946;-65
2021/10/04 11:30:59;;;;;;;1.40;0.83;;;;;;;17.24;62.77;96929.59;5092360;28;20426;-65
2021/10/04 11:33:27;;;;;;;0.90;0.70;;;;;;;17.22;62.91;96934.25;5092843;28;20420;-65